Tring-Jonction, Canada
Current Conditions -  °F | °C
As of 1:13 PM on Sunday 23 Nov 2014 (Local Time) from CYQB Reporting Station
Haze Haze  
Wind Chill: 29°   Ceiling: 800
Heat Index: 36°   Visibility: 2.2mi
Dew Point: 34°   Wind: 9mph
Humidity: 93%   Direction: 240°WSW
Pressure: 30.01"   Gusts: NA
Location:  46.27°N, 71°W
Report Text: CYQB 231813Z 24008KT 2 1/4SM BR VV008 02/01 A3001 RMK FG8 CIG VRB 6-10 SLP166
Loading
Personal Weather Stations






























Interactive Weather Map New forecast layout! Learn more

10-Day Weather Forecast

Advertisements
Track Severe Weather on mobile